Time;durP1;ratioP1;P1;durP2;ratioP2;P2;SDS_P1;SDS_P2;PMS_P1;PMS_P2;Temp;Humidity;BMP_temperature;BMP_pressure;BME280_temperature;BME280_humidity;BME280_pressure;Samples;Min_cycle;Max_cycle;Signal;HPM_P1;HPM_P2
2023/06/06 00:01:49;;;;;;;11.47;10.37;;;15.00;99.90;;;;;;5044372;28;20591;-79
2023/06/06 00:04:16;;;;;;;12.43;11.23;;;15.10;99.90;;;;;;5040339;28;20883;-79
2023/06/06 00:06:44;;;;;;;12.27;11.10;;;15.10;99.90;;;;;;5045112;28;20943;-80
2023/06/06 00:09:11;;;;;;;13.00;11.80;;;15.20;99.90;;;;;;5036879;28;20477;-81
2023/06/06 00:11:39;;;;;;;12.10;10.93;;;15.30;99.90;;;;;;5041194;28;20477;-80
2023/06/06 00:14:07;;;;;;;12.17;11.10;;;15.20;99.90;;;;;;5043410;28;20461;-80
2023/06/06 00:16:34;;;;;;;11.70;10.80;;;15.20;99.90;;;;;;5036151;28;20456;-80
2023/06/06 00:19:03;;;;;;;13.07;11.87;;;15.20;99.90;;;;;;5045543;28;20538;-82
2023/06/06 00:21:32;;;;;;;12.17;11.17;;;15.10;99.90;;;;;;5049172;28;20495;-80
2023/06/06 00:23:59;;;;;;;13.60;12.30;;;15.20;99.90;;;;;;5047939;28;20575;-80
2023/06/06 00:26:27;;;;;;;13.83;12.63;;;15.20;99.90;;;;;;5047038;28;20897;-80
2023/06/06 00:28:54;;;;;;;13.47;12.37;;;15.20;99.90;;;;;;5050460;28;20638;-80
2023/06/06 00:31:21;;;;;;;12.23;11.20;;;15.10;99.90;;;;;;5048552;28;20456;-80
2023/06/06 00:33:48;;;;;;;13.07;11.87;;;15.20;99.90;;;;;;5049961;28;20837;-80
2023/06/06 00:36:16;;;;;;;12.50;11.40;;;15.10;99.90;;;;;;5048477;28;20489;-80
2023/06/06 00:38:43;;;;;;;12.60;11.50;;;15.20;99.90;;;;;;5050255;28;20914;-81
2023/06/06 00:41:11;;;;;;;13.83;12.53;;;15.10;99.90;;;;;;5047895;28;20507;-80
2023/06/06 00:43:38;;;;;;;13.03;11.90;;;15.10;99.90;;;;;;5047330;28;20995;-83
2023/06/06 00:46:05;;;;;;;14.67;10.10;;;15.20;99.90;;;;;;5045871;28;20871;-81
2023/06/06 00:48:33;;;;;;;11.47;10.37;;;15.20;99.90;;;;;;5041672;28;20466;-80
2023/06/06 00:51:01;;;;;;;12.07;11.07;;;15.20;99.90;;;;;;5042564;28;20530;-81
2023/06/06 00:53:29;;;;;;;11.27;10.17;;;15.20;99.90;;;;;;5037598;28;20863;-80
2023/06/06 00:55:57;;;;;;;12.03;10.93;;;15.10;99.90;;;;;;5044802;28;20462;-82
2023/06/06 00:58:26;;;;;;;12.90;11.90;;;15.20;99.90;;;;;;5045104;28;20530;-82
2023/06/06 01:00:53;;;;;;;13.13;11.93;;;15.20;99.90;;;;;;5045768;28;20550;-80
2023/06/06 01:03:21;;;;;;;11.53;10.60;;;15.10;99.90;;;;;;5046413;28;20517;-80
2023/06/06 01:05:48;;;;;;;12.33;11.23;;;15.20;99.90;;;;;;5048597;28;20528;-82
2023/06/06 01:08:14;;;;;;;10.80;9.90;;;15.20;99.90;;;;;;5048627;28;20459;-82
2023/06/06 01:10:43;;;;;;;12.67;11.40;;;15.20;99.90;;;;;;5042406;28;20498;-82
2023/06/06 01:13:18;;;;;;;10.97;10.07;;;15.30;99.90;;;;;;5039634;28;20454;-80
2023/06/06 01:15:52;;;;;;;10.97;10.07;;;15.30;99.90;;;;;;5048884;28;20472;-78
2023/06/06 01:18:21;;;;;;;12.40;11.37;;;15.30;99.90;;;;;;5046223;28;20542;-79
2023/06/06 01:20:50;;;;;;;11.13;10.23;;;15.30;99.90;;;;;;5048914;28;20472;-80
2023/06/06 01:23:19;;;;;;;11.03;10.13;;;15.20;99.90;;;;;;5047964;28;20554;-78
2023/06/06 01:25:48;;;;;;;10.03;9.13;;;15.20;99.90;;;;;;5047856;28;20913;-80
2023/06/06 01:28:15;;;;;;;10.00;9.20;;;15.20;99.90;;;;;;5047938;28;20446;-80
2023/06/06 01:30:44;;;;;;;11.03;10.13;;;15.20;99.90;;;;;;5045343;28;20468;-85
2023/06/06 01:33:23;;;;;;;11.40;10.47;;;15.30;99.90;;;;;;5048620;28;20443;-82
2023/06/06 01:36:01;;;;;;;10.13;9.30;;;15.20;99.90;;;;;;5048353;28;20472;-80
2023/06/06 01:38:35;;;;;;;12.57;11.37;;;15.20;99.90;;;;;;5049390;28;20495;-80
2023/06/06 01:41:03;;;;;;;11.00;10.13;;;15.20;99.90;;;;;;5044737;28;20986;-79
2023/06/06 01:43:32;;;;;;;10.80;9.80;;;15.10;99.90;;;;;;5047977;28;20469;-83
2023/06/06 01:46:00;;;;;;;8.63;7.93;;;15.20;99.90;;;;;;5043462;28;20465;-79
2023/06/06 01:48:28;;;;;;;12.50;11.20;;;15.20;99.90;;;;;;5043946;28;20803;-80
2023/06/06 01:50:55;;;;;;;8.37;7.77;;;15.20;99.90;;;;;;5041811;28;20850;-80
2023/06/06 01:53:22;;;;;;;12.20;11.20;;;15.20;99.90;;;;;;5047635;28;20489;-80
2023/06/06 01:55:50;;;;;;;10.10;9.03;;;15.20;99.90;;;;;;5048049;28;20496;-80
2023/06/06 01:58:19;;;;;;;12.90;11.17;;;15.10;99.90;;;;;;5045384;28;21202;-79
2023/06/06 02:00:46;;;;;;;11.07;10.07;;;15.10;99.90;;;;;;5046178;28;20503;-80
2023/06/06 02:03:13;;;;;;;11.40;10.50;;;15.10;99.90;;;;;;5039262;28;20437;-82
2023/06/06 02:05:40;;;;;;;11.53;10.53;;;15.10;99.90;;;;;;5048473;28;20928;-80
2023/06/06 02:08:07;;;;;;;10.63;9.73;;;15.20;99.90;;;;;;5046817;28;20501;-80
2023/06/06 02:10:34;;;;;;;11.10;10.10;;;15.20;99.90;;;;;;5047521;28;20799;-80
2023/06/06 02:13:05;;;;;;;10.60;9.73;;;15.20;99.90;;;;;;5043069;28;20562;-80
2023/06/06 02:15:32;;;;;;;11.67;10.67;;;15.20;99.90;;;;;;5047641;28;20629;-80
2023/06/06 02:17:59;;;;;;;11.23;10.37;;;15.20;99.90;;;;;;5045944;28;20497;-80
2023/06/06 02:20:26;;;;;;;10.07;9.03;;;15.20;99.90;;;;;;5047734;28;20499;-80
2023/06/06 02:22:53;;;;;;;9.63;8.80;;;15.20;99.90;;;;;;5045616;28;20538;-80
2023/06/06 02:25:23;;;;;;;9.90;9.10;;;15.10;99.90;;;;;;5045818;28;20495;-80
2023/06/06 02:27:50;;;;;;;10.27;9.47;;;15.20;99.90;;;;;;5033668;28;20462;-80
2023/06/06 02:30:19;;;;;;;8.23;7.53;;;15.20;99.90;;;;;;5047004;28;20437;-77
2023/06/06 02:32:46;;;;;;;10.80;9.90;;;15.20;99.90;;;;;;5044627;28;20456;-80
2023/06/06 02:35:14;;;;;;;10.43;9.63;;;15.20;99.90;;;;;;5038161;28;20452;-83
2023/06/06 02:37:41;;;;;;;11.07;10.17;;;15.20;99.90;;;;;;5048307;28;20978;-80
2023/06/06 02:40:10;;;;;;;11.50;10.70;;;15.20;99.90;;;;;;5046832;28;20445;-82
2023/06/06 02:42:38;;;;;;;11.03;10.23;;;15.20;99.90;;;;;;5040667;28;20531;-79
2023/06/06 02:45:06;;;;;;;11.30;10.20;;;15.30;99.90;;;;;;5043624;28;20498;-79
2023/06/06 02:47:35;;;;;;;12.13;10.97;;;15.30;99.90;;;;;;5046838;28;20536;-79
2023/06/06 02:50:03;;;;;;;10.43;9.53;;;15.20;99.90;;;;;;5040437;28;20524;-80
2023/06/06 02:52:31;;;;;;;9.50;8.80;;;15.10;99.90;;;;;;5038492;28;20469;-80
2023/06/06 02:54:58;;;;;;;11.10;10.20;;;15.10;99.90;;;;;;5044496;28;20825;-83
2023/06/06 02:57:26;;;;;;;10.40;9.60;;;15.10;99.90;;;;;;5044783;28;20532;-80
2023/06/06 02:59:53;;;;;;;10.30;9.43;;;15.10;99.90;;;;;;5037020;28;20586;-84
2023/06/06 03:02:21;;;;;;;9.83;9.07;;;15.10;99.90;;;;;;5043429;28;20480;-80
2023/06/06 03:04:50;;;;;;;10.43;9.67;;;15.10;99.90;;;;;;5046509;28;20465;-80
2023/06/06 03:07:17;;;;;;;11.07;10.27;;;15.10;99.90;;;;;;5043520;28;20496;-83
2023/06/06 03:09:45;;;;;;;10.40;9.60;;;15.10;99.90;;;;;;5046740;28;20449;-80
2023/06/06 03:12:12;;;;;;;10.40;9.50;;;15.00;99.90;;;;;;5045207;28;20471;-81
2023/06/06 03:14:39;;;;;;;9.97;9.17;;;15.00;99.90;;;;;;5038813;28;20469;-82
2023/06/06 03:17:07;;;;;;;11.20;10.27;;;15.00;99.90;;;;;;5046228;28;20476;-80
2023/06/06 03:19:35;;;;;;;11.27;10.30;;;15.10;99.90;;;;;;5043666;28;20532;-83
2023/06/06 03:22:03;;;;;;;9.33;8.63;;;15.20;99.90;;;;;;5040524;28;20512;-81
2023/06/06 03:24:33;;;;;;;12.27;11.20;;;15.30;99.90;;;;;;5045064;28;20453;-80
2023/06/06 03:27:02;;;;;;;9.97;9.07;;;15.30;99.90;;;;;;5036906;28;20527;-81
2023/06/06 03:29:29;;;;;;;10.70;9.80;;;15.30;99.90;;;;;;5043584;28;20449;-81
2023/06/06 03:31:56;;;;;;;11.23;10.43;;;15.30;99.90;;;;;;5045304;28;20966;-83
2023/06/06 03:34:25;;;;;;;9.43;8.60;;;15.30;99.90;;;;;;5045370;28;20465;-83
2023/06/06 03:36:54;;;;;;;9.90;9.10;;;15.30;99.90;;;;;;5053237;28;21026;-80
2023/06/06 03:39:22;;;;;;;9.37;8.57;;;15.40;99.90;;;;;;5051714;28;20523;-80
2023/06/06 03:41:49;;;;;;;12.40;11.20;;;15.40;99.90;;;;;;5043991;28;20484;-80
2023/06/06 03:44:16;;;;;;;10.10;9.17;;;15.40;99.90;;;;;;5043019;28;20463;-80
2023/06/06 03:46:43;;;;;;;9.97;9.23;;;15.50;99.90;;;;;;5041542;28;20493;-79
2023/06/06 03:49:10;;;;;;;10.33;9.57;;;15.50;99.90;;;;;;5045759;28;20476;-80
2023/06/06 03:51:40;;;;;;;9.77;9.07;;;15.40;99.90;;;;;;5044682;28;20514;-80
2023/06/06 03:54:07;;;;;;;8.80;8.20;;;15.50;99.90;;;;;;5041327;28;21100;-80
2023/06/06 03:56:36;;;;;;;9.87;9.13;;;15.60;99.90;;;;;;5043909;28;20461;-81
2023/06/06 03:59:05;;;;;;;10.23;9.53;;;15.70;99.90;;;;;;5041148;28;20531;-84
2023/06/06 04:01:32;;;;;;;9.70;8.93;;;15.80;99.90;;;;;;5045849;28;20493;-82
2023/06/06 04:03:59;;;;;;;10.70;9.80;;;15.70;99.90;;;;;;5046519;28;20985;-80
2023/06/06 04:06:26;;;;;;;10.50;9.63;;;15.80;99.90;;;;;;5035581;28;20533;-83
2023/06/06 04:08:53;;;;;;;11.83;10.80;;;15.90;99.90;;;;;;5045860;28;20481;-80
2023/06/06 04:11:21;;;;;;;11.77;10.87;;;15.90;99.90;;;;;;5045675;28;20499;-80
2023/06/06 04:13:50;;;;;;;11.33;10.43;;;15.90;99.90;;;;;;5038976;28;20934;-82
2023/06/06 04:16:16;;;;;;;11.40;10.50;;;16.00;99.90;;;;;;5045331;28;20520;-83
2023/06/06 04:18:43;;;;;;;9.60;8.90;;;16.00;99.90;;;;;;5039369;28;20489;-82
2023/06/06 04:21:10;;;;;;;10.60;9.77;;;16.10;99.90;;;;;;5045158;28;20935;-83
2023/06/06 04:23:37;;;;;;;11.07;10.07;;;16.10;99.90;;;;;;5041250;28;20461;-80
2023/06/06 04:26:04;;;;;;;10.67;9.77;;;16.20;99.90;;;;;;5048853;28;20517;-81
2023/06/06 04:28:31;;;;;;;10.47;9.60;;;16.20;99.90;;;;;;5061696;28;20514;-79
2023/06/06 04:31:00;;;;;;;14.80;13.60;;;16.20;99.90;;;;;;5058792;28;20489;-80
2023/06/06 04:33:29;;;;;;;11.20;10.40;;;16.20;99.90;;;;;;5058294;28;20494;-80
2023/06/06 04:35:57;;;;;;;11.33;10.53;;;16.10;99.90;;;;;;5047797;28;20489;-82
2023/06/06 04:38:24;;;;;;;10.43;9.67;;;16.30;99.90;;;;;;5047248;28;20513;-84
2023/06/06 04:40:53;;;;;;;11.17;10.40;;;16.40;99.90;;;;;;5045743;28;20853;-80
2023/06/06 04:43:23;;;;;;;11.73;10.80;;;16.30;99.90;;;;;;5042724;28;20501;-81
2023/06/06 04:45:51;;;;;;;10.93;10.13;;;16.20;99.90;;;;;;5037324;28;20461;-83
2023/06/06 04:48:19;;;;;;;11.33;10.23;;;16.30;99.90;;;;;;5043735;28;20538;-81
2023/06/06 04:50:49;;;;;;;10.33;9.53;;;16.30;99.90;;;;;;5045473;28;20448;-80
2023/06/06 04:53:16;;;;;;;11.63;10.53;;;16.50;99.90;;;;;;5043171;28;20540;-80
2023/06/06 04:55:43;;;;;;;12.23;11.20;;;16.50;99.90;;;;;;5042820;28;20515;-83
2023/06/06 04:58:14;;;;;;;12.30;11.20;;;16.60;99.90;;;;;;5043240;28;20480;-80
2023/06/06 05:00:45;;;;;;;10.60;9.90;;;16.50;99.90;;;;;;5032904;28;21004;-82
2023/06/06 05:03:12;;;;;;;11.97;11.00;;;16.50;99.90;;;;;;5045715;28;20477;-85
2023/06/06 05:05:40;;;;;;;10.80;10.00;;;16.50;99.90;;;;;;5046195;28;20446;-86
2023/06/06 05:08:07;;;;;;;12.70;11.70;;;16.50;99.90;;;;;;5040886;28;20445;-81
2023/06/06 05:10:34;;;;;;;11.57;10.57;;;16.40;99.90;;;;;;5049321;28;20452;-80
2023/06/06 05:13:01;;;;;;;11.50;10.50;;;16.50;99.90;;;;;;5046249;28;20534;-83
2023/06/06 05:15:28;;;;;;;12.17;10.93;;;16.60;99.90;;;;;;5041984;28;20555;-80
2023/06/06 05:17:56;;;;;;;11.43;10.53;;;16.70;99.90;;;;;;5049613;28;20455;-81
2023/06/06 05:20:24;;;;;;;11.80;10.90;;;16.60;99.90;;;;;;5048365;28;20483;-80
2023/06/06 05:22:53;;;;;;;11.53;10.70;;;16.70;99.90;;;;;;5048501;28;20956;-80
2023/06/06 05:25:19;;;;;;;11.00;10.20;;;16.70;99.90;;;;;;5043222;28;20550;-80
2023/06/06 05:27:47;;;;;;;12.07;10.90;;;16.50;99.90;;;;;;5045084;28;21033;-81
2023/06/06 05:30:14;;;;;;;12.67;11.47;;;16.50;99.90;;;;;;5048635;28;20473;-82
2023/06/06 05:32:41;;;;;;;14.77;13.30;;;16.70;99.90;;;;;;5048977;28;20457;-80
2023/06/06 05:35:09;;;;;;;18.20;16.70;;;16.80;99.90;;;;;;5046672;28;20499;-85
2023/06/06 05:37:36;;;;;;;18.53;16.93;;;16.90;99.90;;;;;;5039891;28;20470;-82
2023/06/06 05:40:06;;;;;;;21.33;19.43;;;17.10;99.90;;;;;;5045713;28;20536;-83
2023/06/06 05:42:33;;;;;;;19.87;18.30;;;17.20;99.90;;;;;;5042063;28;20492;-82
2023/06/06 05:45:00;;;;;;;14.57;13.20;;;17.20;99.90;;;;;;5048408;28;20491;-80
2023/06/06 05:47:27;;;;;;;22.60;20.50;;;17.30;99.90;;;;;;5048151;28;20473;-79
2023/06/06 05:49:54;;;;;;;28.53;26.07;;;17.30;99.90;;;;;;5043314;28;20486;-81
2023/06/06 05:52:21;;;;;;;19.33;17.67;;;17.40;99.90;;;;;;5045307;28;20450;-80
2023/06/06 05:54:48;;;;;;;41.30;37.27;;;17.70;99.90;;;;;;5048316;28;20507;-80
2023/06/06 05:57:21;;;;;;;22.80;20.50;;;17.80;99.90;;;;;;5048087;28;20476;-85
2023/06/06 05:59:48;;;;;;;23.40;21.20;;;17.70;99.90;;;;;;5047812;28;20981;-80
2023/06/06 06:02:15;;;;;;;22.80;18.60;;;17.70;99.90;;;;;;5049283;28;20558;-81
2023/06/06 06:04:42;;;;;;;21.90;19.80;;;17.70;99.90;;;;;;5048249;28;20496;-80
2023/06/06 06:07:09;;;;;;;20.87;18.97;;;17.90;99.90;;;;;;5048366;28;20483;-78
2023/06/06 06:09:36;;;;;;;20.43;18.60;;;18.00;99.90;;;;;;5047712;28;20468;-81
2023/06/06 06:12:03;;;;;;;18.50;16.67;;;18.00;99.90;;;;;;5046773;28;20490;-81
2023/06/06 06:14:32;;;;;;;17.77;16.03;;;18.10;99.90;;;;;;5044446;28;20550;-81
2023/06/06 06:16:59;;;;;;;15.70;14.30;;;18.30;99.90;;;;;;5044018;28;20539;-81
2023/06/06 06:19:25;;;;;;;13.70;12.47;;;18.20;99.90;;;;;;5044587;28;21410;-80
2023/06/06 06:21:52;;;;;;;12.77;11.67;;;18.10;99.90;;;;;;5043628;28;20474;-81
2023/06/06 06:24:19;;;;;;;15.33;13.93;;;18.10;99.90;;;;;;5045467;28;20525;-83
2023/06/06 06:26:48;;;;;;;14.90;13.60;;;18.10;99.90;;;;;;5038851;28;20545;-81
2023/06/06 06:29:14;;;;;;;13.47;12.17;;;18.00;99.90;;;;;;5043446;28;20444;-85
2023/06/06 06:31:43;;;;;;;11.97;10.97;;;18.00;99.90;;;;;;5047453;28;20476;-84
2023/06/06 06:34:10;;;;;;;12.47;11.33;;;18.00;99.90;;;;;;5042885;28;21195;-85
2023/06/06 06:36:36;;;;;;;12.47;11.40;;;18.00;99.90;;;;;;5047742;28;20473;-81
2023/06/06 06:39:04;;;;;;;13.30;12.20;;;18.10;99.90;;;;;;5048898;28;20439;-82
2023/06/06 06:41:31;;;;;;;11.83;10.83;;;18.30;99.90;;;;;;5044227;28;20458;-83
2023/06/06 06:43:57;;;;;;;12.43;11.30;;;18.30;99.90;;;;;;5045647;28;20504;-82
2023/06/06 06:46:24;;;;;;;13.63;12.23;;;18.50;99.90;;;;;;5042506;28;20469;-80
2023/06/06 06:48:53;;;;;;;12.57;11.47;;;18.60;99.90;;;;;;5046562;28;20826;-86
2023/06/06 06:51:21;;;;;;;13.17;12.00;;;18.80;99.90;;;;;;5046775;28;20512;-85
2023/06/06 06:53:49;;;;;;;11.33;10.23;;;18.90;99.90;;;;;;5039221;28;20458;-81
2023/06/06 06:56:16;;;;;;;12.90;11.70;;;18.80;99.90;;;;;;5044534;28;20445;-83
2023/06/06 06:58:44;;;;;;;14.43;13.03;;;18.70;99.90;;;;;;5038377;28;20480;-83
2023/06/06 07:01:11;;;;;;;13.77;12.57;;;18.90;99.90;;;;;;5047155;28;20807;-80
2023/06/06 07:03:44;;;;;;;13.30;12.10;;;18.70;99.90;;;;;;5046158;28;20600;-82
2023/06/06 07:06:12;;;;;;;15.27;13.70;;;18.80;99.90;;;;;;5045239;28;20431;-85
2023/06/06 07:08:41;;;;;;;13.70;12.40;;;18.70;99.90;;;;;;5035548;28;20493;-82
2023/06/06 07:11:08;;;;;;;12.87;11.77;;;18.50;99.90;;;;;;5046034;28;20530;-80
2023/06/06 07:13:35;;;;;;;13.63;12.33;;;18.70;99.90;;;;;;5046908;28;20978;-81
2023/06/06 07:16:02;;;;;;;13.43;12.30;;;18.80;99.90;;;;;;5047231;28;20466;-83
2023/06/06 07:18:29;;;;;;;13.87;12.63;;;19.00;99.90;;;;;;5046951;28;20461;-83
2023/06/06 07:20:56;;;;;;;13.00;11.80;;;19.40;99.90;;;;;;5045269;28;20500;-85
2023/06/06 07:23:25;;;;;;;11.80;10.80;;;19.30;99.90;;;;;;5044155;28;20517;-80
2023/06/06 07:25:53;;;;;;;13.90;12.70;;;19.70;99.90;;;;;;5041859;28;20508;-84
2023/06/06 07:28:19;;;;;;;10.13;9.33;;;19.90;99.90;;;;;;5057966;28;20481;-82
2023/06/06 07:30:46;;;;;;;11.60;10.60;;;20.10;99.90;;;;;;5062101;28;20441;-83
2023/06/06 07:33:13;;;;;;;12.37;11.27;;;20.20;99.90;;;;;;5055308;28;20433;-80
2023/06/06 07:35:40;;;;;;;10.80;9.80;;;20.10;99.90;;;;;;5049909;28;20445;-81
2023/06/06 07:38:07;;;;;;;15.13;13.63;;;20.00;99.90;;;;;;5048045;28;20445;-81
2023/06/06 07:40:35;;;;;;;12.13;11.03;;;20.10;99.90;;;;;;5047178;28;21064;-81
2023/06/06 07:43:02;;;;;;;13.03;11.80;;;19.80;99.90;;;;;;5038095;28;20986;-81
2023/06/06 07:45:29;;;;;;;12.97;11.87;;;19.90;99.90;;;;;;5039316;28;20509;-81
2023/06/06 07:47:57;;;;;;;13.07;11.93;;;19.50;99.90;;;;;;5040905;28;20566;-80
2023/06/06 07:50:23;;;;;;;11.50;10.50;;;19.20;99.90;;;;;;5045988;28;20468;-82
2023/06/06 07:52:51;;;;;;;9.67;8.90;;;19.10;99.90;;;;;;5044745;28;21001;-81
2023/06/06 07:55:18;;;;;;;11.40;10.50;;;18.90;99.90;;;;;;5045952;28;20473;-79
2023/06/06 07:57:46;;;;;;;12.60;11.57;;;19.10;99.90;;;;;;5046047;28;20495;-82
2023/06/06 08:00:14;;;;;;;11.70;10.80;;;19.50;99.90;;;;;;5045543;28;20956;-82
2023/06/06 08:02:41;;;;;;;14.40;13.30;;;19.60;99.90;;;;;;5046140;28;20480;-82
2023/06/06 08:05:09;;;;;;;13.67;12.60;;;19.60;99.90;;;;;;5047592;28;20445;-82
2023/06/06 08:07:36;;;;;;;14.50;13.17;;;19.70;99.90;;;;;;5046600;28;20534;-81
2023/06/06 08:10:03;;;;;;;12.53;11.53;;;19.70;99.90;;;;;;5045201;28;20814;-81
2023/06/06 08:12:30;;;;;;;13.50;12.40;;;19.80;99.90;;;;;;5045952;28;20505;-82
2023/06/06 08:14:58;;;;;;;13.83;12.73;;;19.90;99.90;;;;;;5045853;28;20469;-82
2023/06/06 08:17:25;;;;;;;13.23;12.03;;;19.90;99.90;;;;;;5046510;28;20484;-81
2023/06/06 08:19:52;;;;;;;13.50;12.40;;;20.30;99.90;;;;;;5040649;28;20515;-80
2023/06/06 08:22:19;;;;;;;12.90;11.70;;;20.60;99.90;;;;;;5046165;28;20583;-81
2023/06/06 08:24:46;;;;;;;12.20;11.20;;;20.50;99.90;;;;;;5046108;28;20509;-81
2023/06/06 08:27:13;;;;;;;12.83;11.73;;;20.70;99.90;;;;;;5045357;28;20874;-84
2023/06/06 08:29:40;;;;;;;15.10;13.80;;;20.80;99.90;;;;;;5044878;28;20965;-83
2023/06/06 08:32:11;;;;;;;15.30;14.03;;;20.80;99.90;;;;;;5046370;28;20471;-82
2023/06/06 08:34:38;;;;;;;15.57;14.27;;;20.60;99.90;;;;;;5044895;28;20451;-82
2023/06/06 08:37:06;;;;;;;14.40;13.20;;;20.60;99.90;;;;;;5045901;28;20449;-83
2023/06/06 08:39:33;;;;;;;12.37;11.47;;;20.50;99.90;;;;;;5046149;28;20442;-82
2023/06/06 08:42:01;;;;;;;12.40;11.40;;;20.70;99.90;;;;;;5044556;28;21038;-83
2023/06/06 08:44:28;;;;;;;11.30;10.40;;;20.50;99.90;;;;;;5050250;28;20538;-81
2023/06/06 08:46:57;;;;;;;12.23;11.23;;;20.40;99.90;;;;;;5044104;28;20485;-81
2023/06/06 08:49:27;;;;;;;11.40;10.50;;;20.60;99.90;;;;;;5050210;28;20441;-81
2023/06/06 08:51:56;;;;;;;14.07;13.07;;;20.70;99.90;;;;;;5049621;28;21115;-81
2023/06/06 08:54:23;;;;;;;10.50;9.67;;;21.20;99.90;;;;;;5049851;28;20481;-80
2023/06/06 08:56:51;;;;;;;11.00;10.10;;;21.40;99.90;;;;;;5048985;28;20943;-81
2023/06/06 08:59:19;;;;;;;9.73;9.03;;;21.20;99.90;;;;;;5047724;28;20834;-81
2023/06/06 09:01:50;;;;;;;9.00;8.10;;;21.20;99.90;;;;;;5049544;28;20441;-83
2023/06/06 09:04:19;;;;;;;9.73;9.03;;;21.20;99.90;;;;;;5050102;28;20468;-81
2023/06/06 09:06:50;;;;;;;8.70;8.10;;;21.30;99.90;;;;;;5050459;28;20453;-81
2023/06/06 09:09:19;;;;;;;9.13;8.43;;;21.50;99.90;;;;;;5042035;28;20956;-81
2023/06/06 09:11:46;;;;;;;9.40;8.60;;;21.40;99.90;;;;;;5050223;28;20469;-81
2023/06/06 09:14:13;;;;;;;10.00;9.10;;;21.60;99.90;;;;;;5048669;28;20905;-80
2023/06/06 09:16:40;;;;;;;7.77;7.17;;;21.60;99.90;;;;;;5050266;28;20535;-82
2023/06/06 09:19:08;;;;;;;7.30;6.80;;;21.70;99.90;;;;;;5043710;28;20478;-79
2023/06/06 09:21:35;;;;;;;7.30;6.70;;;21.40;99.90;;;;;;5049104;28;20477;-79
2023/06/06 09:24:04;;;;;;;7.00;6.40;;;21.30;99.90;;;;;;5044972;28;20564;-79
2023/06/06 09:26:34;;;;;;;7.97;7.37;;;21.40;99.90;;;;;;5049093;28;20543;-79
2023/06/06 09:29:08;;;;;;;7.13;6.53;;;21.90;99.90;;;;;;5050168;28;20574;-78
2023/06/06 09:31:38;;;;;;;6.20;5.80;;;22.10;99.90;;;;;;5039174;28;20540;-79
2023/06/06 09:34:07;;;;;;;6.50;6.00;;;21.60;99.90;;;;;;5044898;28;20807;-80
2023/06/06 09:36:34;;;;;;;5.40;5.07;;;21.90;99.90;;;;;;5047466;28;20472;-79
2023/06/06 09:39:06;;;;;;;5.97;5.50;;;21.80;99.90;;;;;;5046106;28;20450;-79
2023/06/06 09:41:40;;;;;;;5.60;5.10;;;22.10;99.90;;;;;;5046198;28;20480;-80
2023/06/06 09:44:18;;;;;;;6.13;5.60;;;22.40;99.90;;;;;;5048456;28;20484;-82
2023/06/06 09:46:45;;;;;;;5.50;5.10;;;22.60;99.90;;;;;;5048179;28;20456;-82
2023/06/06 09:49:12;;;;;;;3.87;3.57;;;22.80;98.60;;;;;;5046738;28;20994;-79
2023/06/06 09:51:41;;;;;;;3.10;2.90;;;22.60;98.10;;;;;;5042523;28;20988;-84
2023/06/06 09:54:11;;;;;;;4.47;4.10;;;22.80;98.50;;;;;;5038181;28;20438;-79
2023/06/06 09:56:40;;;;;;;3.53;3.30;;;23.40;99.40;;;;;;5049515;28;20447;-81
2023/06/06 09:59:08;;;;;;;3.47;3.13;;;23.90;95.10;;;;;;5047364;28;20894;-82
2023/06/06 10:01:39;;;;;;;3.30;3.10;;;23.80;95.10;;;;;;5049035;28;20480;-81
2023/06/06 10:04:07;;;;;;;3.47;3.27;;;23.80;96.00;;;;;;5049054;28;20513;-81
2023/06/06 10:06:34;;;;;;;3.77;3.57;;;23.40;96.40;;;;;;5048431;28;20844;-80
2023/06/06 10:09:04;;;;;;;3.60;3.40;;;23.20;96.40;;;;;;5044981;28;20540;-82
2023/06/06 10:11:33;;;;;;;3.07;2.87;;;23.40;95.90;;;;;;5045293;28;20474;-79
2023/06/06 10:14:02;;;;;;;3.67;3.47;;;23.50;92.80;;;;;;5047090;28;20449;-79
2023/06/06 10:16:30;;;;;;;3.50;3.30;;;23.40;93.20;;;;;;5048006;28;20442;-82
2023/06/06 10:18:58;;;;;;;3.87;3.67;;;23.40;98.00;;;;;;5040680;28;20992;-81
2023/06/06 10:21:26;;;;;;;4.03;3.83;;;23.30;95.40;;;;;;5046123;28;20491;-79
2023/06/06 10:23:54;;;;;;;3.77;3.57;;;23.00;93.40;;;;;;5048820;28;20514;-77
2023/06/06 10:26:26;;;;;;;3.50;3.30;;;22.80;95.10;;;;;;5049288;28;20455;-82
2023/06/06 10:29:02;;;;;;;3.80;3.60;;;22.90;94.80;;;;;;5053446;28;20723;-79
2023/06/06 10:31:40;;;;;;;3.70;3.40;;;23.00;94.00;;;;;;5055673;28;20471;-81
2023/06/06 10:34:11;;;;;;;4.53;4.23;;;22.70;95.00;;;;;;5049343;28;20563;-79
2023/06/06 10:36:41;;;;;;;3.70;3.50;;;22.70;97.50;;;;;;5051868;28;20469;-79
2023/06/06 10:39:19;;;;;;;4.27;4.07;;;22.90;94.40;;;;;;5044366;28;21180;-81
2023/06/06 10:41:56;;;;;;;4.77;4.47;;;23.00;95.10;;;;;;5037156;28;20473;-82
2023/06/06 10:44:34;;;;;;;4.43;4.13;;;23.20;95.20;;;;;;5040597;28;20522;-79
2023/06/06 10:47:27;;;;;;;4.30;4.10;;;23.60;94.50;;;;;;5041128;28;20434;-79
2023/06/06 10:50:24;;;;;;;5.67;5.17;;;23.80;93.60;;;;;;5046619;28;20456;-79
2023/06/06 10:52:53;;;;;;;3.97;3.67;;;23.30;92.60;;;;;;5003305;28;20455;-83
2023/06/06 10:55:44;;;;;;;4.90;4.60;;;23.20;93.80;;;;;;5038193;28;20463;-78
2023/06/06 10:58:17;;;;;;;4.57;4.27;;;23.20;93.60;;;;;;5037952;28;20477;-79
2023/06/06 11:00:49;;;;;;;5.13;4.50;;;24.00;92.70;;;;;;5046293;28;20543;-80
2023/06/06 11:03:19;;;;;;;4.53;4.13;;;23.90;92.30;;;;;;5038972;28;20486;-79
2023/06/06 11:06:11;;;;;;;4.80;4.50;;;24.20;93.40;;;;;;5043691;28;20799;-79
2023/06/06 11:08:40;;;;;;;3.63;3.43;;;24.20;92.90;;;;;;5042420;28;20530;-80
2023/06/06 11:11:22;;;;;;;2.97;2.77;;;24.30;94.00;;;;;;5047876;28;20500;-78
2023/06/06 11:13:51;;;;;;;3.50;3.20;;;23.30;91.60;;;;;;5047565;28;20524;-83
2023/06/06 11:16:28;;;;;;;3.80;3.60;;;23.00;92.40;;;;;;5041309;28;20441;-79
2023/06/06 11:19:02;;;;;;;2.90;2.70;;;23.10;94.90;;;;;;5047175;28;20437;-79
2023/06/06 11:21:31;;;;;;;2.70;2.50;;;23.60;90.30;;;;;;5044418;28;20981;-79
2023/06/06 11:23:59;;;;;;;3.50;3.20;;;23.90;84.70;;;;;;5039622;28;20831;-79
2023/06/06 11:26:27;;;;;;;3.57;3.27;;;23.90;87.50;;;;;;5044551;28;20511;-78
2023/06/06 11:28:55;;;;;;;4.90;4.50;;;23.70;86.90;;;;;;5046193;28;20441;-79
2023/06/06 11:31:24;;;;;;;4.50;4.20;;;24.20;91.50;;;;;;5046077;28;20439;-79
2023/06/06 11:33:51;;;;;;;4.40;4.10;;;24.40;87.40;;;;;;5039804;28;20475;-80
2023/06/06 11:36:19;;;;;;;3.73;3.53;;;24.40;89.60;;;;;;5047539;28;20481;-79
2023/06/06 11:38:46;;;;;;;4.50;4.20;;;25.20;90.00;;;;;;5041667;28;20449;-79
2023/06/06 11:41:13;;;;;;;3.60;3.40;;;25.30;87.80;;;;;;5044300;28;21040;-79
2023/06/06 11:43:49;;;;;;;6.10;4.00;;;24.90;86.20;;;;;;5042982;28;20970;-81
2023/06/06 11:46:17;;;;;;;3.97;3.67;;;24.80;83.90;;;;;;5041643;28;20968;-83
2023/06/06 11:48:45;;;;;;;3.97;3.53;;;23.90;87.00;;;;;;5044132;28;20979;-79
2023/06/06 11:51:13;;;;;;;4.87;3.40;;;23.50;90.00;;;;;;5044314;28;20914;-79
2023/06/06 11:53:40;;;;;;;3.30;3.10;;;23.40;87.70;;;;;;5046209;28;20473;-79
2023/06/06 11:56:07;;;;;;;2.80;2.60;;;23.90;90.10;;;;;;5047031;28;21157;-79
2023/06/06 11:58:40;;;;;;;3.17;2.97;;;24.30;87.20;;;;;;5043101;28;20516;-82
2023/06/06 12:01:09;;;;;;;2.70;2.57;;;24.40;83.30;;;;;;5047935;28;21218;-79
2023/06/06 12:03:37;;;;;;;3.70;3.40;;;24.60;86.50;;;;;;5046171;28;20442;-82
2023/06/06 12:06:07;;;;;;;3.20;2.97;;;24.60;75.60;;;;;;5033022;28;21035;-79
2023/06/06 12:08:34;;;;;;;4.03;2.73;;;24.50;85.90;;;;;;5046936;28;20986;-80
2023/06/06 12:11:22;;;;;;;3.07;2.87;;;24.00;81.30;;;;;;5046997;28;20530;-80
2023/06/06 12:13:49;;;;;;;3.33;3.13;;;23.70;86.20;;;;;;5046239;28;20496;-79
2023/06/06 12:16:22;;;;;;;2.73;2.63;;;23.60;84.80;;;;;;5050406;28;20464;-81
2023/06/06 12:18:49;;;;;;;3.17;2.97;;;24.40;83.30;;;;;;5050661;28;20523;-82
2023/06/06 12:21:18;;;;;;;3.30;3.10;;;24.40;82.60;;;;;;5051927;28;20520;-79
2023/06/06 12:23:46;;;;;;;2.87;2.67;;;23.90;86.60;;;;;;5050771;28;20492;-80
2023/06/06 12:26:16;;;;;;;3.80;3.60;;;23.00;90.70;;;;;;5049969;28;20481;-83
2023/06/06 12:28:57;;;;;;;3.10;2.90;;;22.80;90.30;;;;;;5049898;28;20453;-79
2023/06/06 12:31:25;;;;;;;3.73;2.93;;;22.80;91.50;;;;;;5048789;28;20470;-80
2023/06/06 12:33:53;;;;;;;4.10;3.80;;;23.40;90.40;;;;;;5040525;28;20448;-79
2023/06/06 12:36:25;;;;;;;3.23;2.93;;;23.90;84.40;;;;;;5050546;28;20439;-79
2023/06/06 12:38:59;;;;;;;2.80;2.63;;;24.50;85.20;;;;;;5050581;28;20515;-79
2023/06/06 12:41:39;;;;;;;2.63;2.53;;;24.80;81.40;;;;;;5049373;28;20458;-79
2023/06/06 12:44:08;;;;;;;2.90;2.77;;;24.40;78.90;;;;;;5051367;28;20466;-79